メインページ
METAR-TAF:

METAR-TAF

空港 :

Quesnel, ブリティッシュコロンビア州, カナダ

緯度: 53-02N, 経度: 122-31W, 海抜: 545m

現時点の気象観測

当レポートは1時間5分前の07:00(UTC)に作成
南/南東の風 7kt、からの間で変化する
気温 3°C
湿度 65%
気圧 1013 hPa
視程: 14.5km
高度11000ftの千切れ雲あり
高度16000ftの千切れ雲あり

METAR: CYQZ 220700Z AUTO 15007KT 100V170 9SM BKN110 BKN160 03/M03 A2990 RMK SLP150

時間: 00:05 (08:05 UTC)

予報

当レポートは7時間27分前の00:38(UTC)に作成
予報は22日の 01時(UTC)から 22日の 06時(UTC)まで有効
南/南東の風 7kt
視程: 10km
高度15000ftの千切れ雲あり
22日の 01時(UTC)から 22日の 06時(UTC)まで一時的に
高度10000ftの千切れ雲あり

TAF: CYQZ 220038Z 2201/2206 15007KT P6SM BKN150 TEMPO 2201/2206 BKN100 RMK FCST BASED ON AUTO OBS. NXT FCST WILL BE ISSUED AT 221145Z

4,000以上の空港の気象観測と天気予報(METAR報とTAF報)

利用可能な観測所は地図上に黄色い丸と赤い丸で示す。

丸の上にカーソルを重ねると観測所名を参照できる。

次にクリックすると気象観測と天気予報を参照できる。

マップの切り替え:黒色「×」印の緑ボタンをクリックして拡大、「-」印の緑ボタンをクリックして縮小、緑色の三角印をクリックして隣りの地図に切り替え


METAR-TAF: